Main page
METAR-TAF:

METAR-TAF

Airports :

King Fahd International Airport

Dammam, Saudi Arabia

latitude: 26-28N, longitude: 049-47E, elevation: 22 m

Current weather observation

The report was made 32 minutes ago, at 18:00 UTC
Calm wind
Temperature 24°C
Humidity 57%
Pressure 1014 hPa
Visibility 10 km or more
no clouds below 1500 m and no cumulonimbus

METAR: OEDF 251800Z 00000KT CAVOK 24/15 Q1014 NOSIG

Time: 21:32 (18:32 UTC)

Forecast

The report was made 3 hours and 32 minutes ago, at 15:00 UTC
Forecast valid from 25 at 18 UTC to 26 at 24 UTC
Wind 3 kt from variable directions
Visibility 10 km or more
no clouds below 1500 m and no cumulonimbus
Temporary
from 26 at 00 UTC to 26 at 04 UTC
Visibility: 5000 m
haze
Becoming
from 26 at 08 UTC to 26 at 10 UTC
Wind 10 kt from the Northeast

TAF: OEDF 251500Z 2518/2624 VRB03KT CAVOK TEMPO 2600/2604 5000 HZ NSC BECMG 2608/2610 05010KT

Weather observations and forecasts of more than 4000 airports (METAR and TAF reports).

The available stations are represented by yellow and red dots on the map.

Hover mouse over dot to see the name of the station.

Then click to see weather observations and forecasts.

To change the map : click on the green buttons with a black cross to zoom in, on the green button with a dash to zoom out, or on the green arrows for adjacent maps.


METAR-TAF: